createdAt,value
2023-01-13T04:57:31.015Z,2.70
2023-01-13T05:00:34.181Z,2.70
2023-01-13T05:03:36.484Z,2.26
2023-01-13T05:06:39.172Z,2.33
2023-01-13T05:09:41.844Z,2.41
2023-01-13T05:13:03.979Z,2.46
2023-01-13T05:16:29.037Z,2.54
2023-01-13T05:19:34.531Z,2.47
2023-01-13T05:22:55.655Z,2.40
2023-01-13T05:25:58.363Z,2.54
2023-01-13T05:29:00.787Z,2.68
2023-01-13T05:32:06.581Z,2.67
2023-01-13T05:35:09.179Z,2.68
2023-01-13T05:38:13.038Z,2.71
2023-01-13T05:41:33.729Z,2.72
2023-01-13T05:44:36.459Z,2.60
2023-01-13T05:47:39.303Z,2.63
2023-01-13T05:50:42.631Z,2.60
2023-01-13T05:53:45.253Z,2.53
2023-01-13T05:56:48.263Z,2.51
2023-01-13T05:59:51.035Z,2.70
2023-01-13T06:02:54.067Z,2.75
2023-01-13T06:06:01.419Z,2.68
2023-01-13T06:09:04.114Z,2.62
2023-01-13T06:12:07.126Z,2.64
2023-01-13T06:15:09.908Z,2.67
2023-01-13T06:18:12.612Z,2.59
2023-01-13T06:21:15.066Z,2.67
2023-01-13T06:24:17.811Z,2.56
2023-01-13T06:27:22.064Z,2.61
2023-01-13T06:30:27.577Z,2.52
2023-01-13T06:33:52.621Z,2.60
2023-01-13T06:36:56.051Z,2.55
2023-01-13T06:40:01.603Z,2.61
2023-01-13T06:43:17.659Z,2.59
2023-01-13T06:46:20.970Z,2.72
2023-01-13T06:49:23.734Z,2.84
2023-01-13T06:52:27.400Z,2.86
2023-01-13T06:55:30.010Z,2.96
2023-01-13T06:58:32.526Z,2.84
2023-01-13T07:01:35.263Z,2.78
2023-01-13T07:04:38.041Z,2.72
2023-01-13T07:07:41.915Z,2.73
2023-01-13T07:10:44.584Z,2.74
2023-01-13T07:14:06.061Z,2.73
2023-01-13T07:17:08.412Z,2.72
2023-01-13T07:20:11.648Z,2.88
2023-01-13T07:23:14.201Z,3.13
2023-01-13T07:26:17.230Z,3.32
2023-01-13T07:29:19.762Z,3.36
2023-01-13T07:32:22.810Z,3.32
2023-01-13T07:35:25.255Z,3.53
2023-01-13T07:38:28.833Z,3.70
2023-01-13T07:41:49.837Z,3.84
2023-01-13T07:44:52.730Z,3.83
2023-01-13T07:47:55.196Z,3.90
2023-01-13T07:51:05.270Z,3.95
2023-01-13T07:54:07.843Z,4.01
2023-01-13T07:57:10.546Z,4.13
2023-01-13T08:00:13.839Z,4.10
2023-01-13T08:03:16.628Z,4.10
2023-01-13T08:06:19.082Z,3.98
2023-01-13T08:09:22.020Z,4.13
2023-01-13T08:12:51.989Z,4.29
2023-01-13T08:16:13.964Z,4.20
2023-01-13T08:19:17.696Z,4.04
2023-01-13T08:22:20.425Z,4.00
2023-01-13T08:25:23.752Z,3.73
2023-01-13T08:28:33.932Z,3.71
2023-01-13T08:31:36.329Z,3.55
2023-01-13T08:34:39.701Z,3.50
2023-01-13T08:37:42.178Z,3.57
2023-01-13T08:40:45.082Z,3.61
2023-01-13T08:43:47.458Z,3.57
2023-01-13T08:46:50.117Z,3.66
2023-01-13T08:49:52.566Z,3.78
2023-01-13T08:52:55.409Z,3.89
2023-01-13T08:55:58.204Z,3.95
2023-01-13T08:59:01.236Z,3.97
2023-01-13T09:02:04.446Z,3.91
2023-01-13T09:05:08.929Z,3.82
2023-01-13T09:08:12.561Z,3.76
2023-01-13T09:11:38.606Z,3.62
2023-01-13T09:14:41.207Z,3.52
2023-01-13T09:17:45.051Z,3.54
2023-01-13T09:20:47.375Z,3.45
2023-01-13T09:23:49.978Z,3.47
2023-01-13T09:26:52.918Z,3.51
2023-01-13T09:29:55.751Z,3.63
2023-01-13T09:33:17.584Z,3.68
2023-01-13T09:36:20.590Z,3.64
2023-01-13T09:39:23.348Z,3.76
2023-01-13T09:43:07.928Z,3.91
2023-01-13T09:46:41.569Z,3.89
2023-01-13T09:49:44.769Z,3.72
2023-01-13T09:52:48.202Z,3.62
2023-01-13T09:55:52.847Z,3.72
2023-01-13T09:58:55.314Z,3.67
2023-01-13T10:02:11.824Z,3.71
2023-01-13T10:05:38.880Z,3.70
2023-01-13T10:08:43.942Z,3.77
2023-01-13T10:12:08.044Z,3.83
2023-01-13T10:15:19.549Z,3.87
2023-01-13T10:18:33.319Z,3.94
2023-01-13T10:22:10.186Z,4.10
2023-01-13T10:25:14.783Z,4.23
2023-01-13T10:28:24.794Z,4.15
2023-01-13T10:31:27.655Z,4.13
2023-01-13T10:34:30.397Z,4.22
2023-01-13T10:37:33.002Z,4.30
2023-01-13T10:40:35.963Z,4.27
2023-01-13T10:43:43.884Z,4.31
2023-01-13T10:46:55.374Z,4.45
2023-01-13T10:50:01.174Z,4.41
2023-01-13T10:53:23.147Z,4.14
2023-01-13T10:56:32.621Z,4.10
2023-01-13T10:59:35.039Z,4.00
2023-01-13T11:02:38.613Z,4.00
2023-01-13T11:05:48.910Z,3.72
2023-01-13T11:08:55.346Z,3.78
2023-01-13T11:11:59.448Z,3.83
2023-01-13T11:15:08.823Z,3.78
2023-01-13T11:18:22.426Z,3.88
2023-01-13T11:21:31.977Z,3.96
2023-01-13T11:24:40.058Z,3.90
2023-01-13T11:27:47.671Z,3.78
2023-01-13T11:30:56.795Z,3.63
2023-01-13T11:34:18.601Z,3.73
2023-01-13T11:37:30.958Z,3.70
2023-01-13T11:40:42.585Z,3.63
2023-01-13T11:44:05.101Z,3.79
2023-01-13T11:47:11.989Z,3.83
2023-01-13T11:50:37.132Z,3.73
2023-01-13T11:54:05.756Z,3.84
2023-01-13T11:57:27.171Z,3.98
2023-01-13T12:00:56.088Z,4.10
2023-01-13T12:04:28.043Z,4.03
2023-01-13T12:07:54.854Z,3.96
2023-01-13T12:11:16.181Z,3.99
2023-01-13T12:14:34.534Z,4.07
2023-01-13T12:17:55.474Z,4.12
2023-01-13T12:21:10.425Z,4.17
2023-01-13T12:24:26.035Z,4.22
2023-01-13T12:27:40.641Z,4.05
2023-01-13T12:30:51.767Z,4.08
2023-01-13T12:34:20.424Z,3.89
2023-01-13T12:37:43.071Z,3.84
2023-01-13T12:40:58.480Z,3.76
2023-01-13T12:44:17.025Z,3.98
2023-01-13T12:47:49.287Z,3.98
2023-01-13T12:51:02.597Z,3.98
2023-01-13T12:54:33.690Z,4.00
2023-01-13T12:57:37.221Z,4.02
2023-01-13T13:00:45.284Z,4.14
2023-01-13T13:04:11.402Z,4.12
2023-01-13T13:07:21.017Z,4.23
2023-01-13T13:10:36.908Z,4.30
2023-01-13T13:13:46.918Z,4.42
2023-01-13T13:16:53.010Z,4.48
2023-01-13T13:19:57.712Z,4.62
2023-01-13T13:23:00.548Z,4.59
2023-01-13T13:26:11.791Z,4.61
2023-01-13T13:29:42.936Z,4.63
2023-01-13T13:33:26.927Z,4.73
2023-01-13T13:36:35.556Z,4.82
2023-01-13T13:40:01.461Z,4.88
2023-01-13T13:43:30.364Z,4.84
2023-01-13T13:46:47.136Z,4.74
2023-01-13T13:49:54.381Z,4.85
2023-01-13T13:53:07.021Z,4.84
2023-01-13T13:56:22.918Z,4.88
2023-01-13T13:59:30.431Z,4.93
2023-01-13T14:02:37.364Z,4.91
2023-01-13T14:05:40.929Z,4.88
2023-01-13T14:08:50.263Z,4.93
2023-01-13T14:12:06.666Z,5.11
2023-01-13T14:15:31.634Z,5.21
2023-01-13T14:18:44.560Z,5.23
2023-01-13T14:21:48.123Z,5.35
2023-01-13T14:24:55.568Z,5.36
2023-01-13T14:28:03.221Z,5.37
2023-01-13T14:31:08.487Z,5.39
2023-01-13T14:34:32.113Z,5.35
2023-01-13T14:37:39.583Z,5.34
2023-01-13T14:40:45.734Z,5.32
2023-01-13T14:43:50.670Z,5.36
2023-01-13T14:46:56.537Z,5.43
2023-01-13T14:50:08.959Z,5.48
2023-01-13T14:53:38.844Z,5.50
2023-01-13T14:56:50.715Z,5.42
2023-01-13T15:00:15.114Z,5.46
2023-01-13T15:03:21.074Z,5.38
2023-01-13T15:06:25.647Z,5.36
2023-01-13T15:09:38.039Z,5.36
2023-01-13T15:12:41.026Z,5.36
2023-01-13T15:15:49.497Z,5.27
2023-01-13T15:18:53.203Z,5.22
2023-01-13T15:21:56.529Z,5.17
2023-01-13T15:24:59.039Z,5.04
2023-01-13T15:28:02.171Z,5.02
2023-01-13T15:31:04.746Z,4.97
2023-01-13T15:34:07.701Z,4.84
2023-01-13T15:37:10.337Z,4.92
2023-01-13T15:40:25.836Z,4.95
2023-01-13T15:43:47.003Z,4.91
2023-01-13T15:46:50.433Z,4.83
2023-01-13T15:49:53.986Z,4.84
2023-01-13T15:52:57.980Z,4.86
2023-01-13T15:56:00.744Z,4.90
2023-01-13T15:59:05.145Z,4.95
2023-01-13T16:02:14.792Z,4.96
2023-01-13T16:05:17.570Z,4.94
2023-01-13T16:08:22.611Z,5.04
2023-01-13T16:11:25.392Z,5.01
2023-01-13T16:14:29.431Z,5.06
2023-01-13T16:17:34.248Z,5.07
2023-01-13T16:20:40.222Z,5.14
2023-01-13T16:23:43.018Z,5.15
2023-01-13T16:26:45.411Z,5.16
2023-01-13T16:29:49.590Z,5.20
2023-01-13T16:32:52.259Z,5.19
